• Join FlightAware (Why Join?)
  • Login
  • US Flag 
12:10PM EDT


 

Airport Tracker/Info


-or-


 

Live Flight TrackerFlight Track Log ✈ N929DE ✈ 17-May-2013 ✈ KCIN - C27

Flight Track Log - Related Links

Times and Time Zones

All times are in EDT time to prevent confusion due to time zone crossing. See the N929DE flight status page for this flight to view local times or setup timezone preferences in your user account.

Time Position Orientation Groundspeed Altitude Reporting Facility
EDT Latitude Longitude Course Direction KTS MPH feet Rate Location/Type
01:28PM 42.0819 -94.5789 76° East 135 155 3,500  Level Minneapolis Center
01:29PM 42.0842 -94.5328 86° East 125 144 4,100 600 Climbing Minneapolis Center
01:30PM 42.0942 -94.4844 74° East 129 148 4,800 720 Climbing Minneapolis Center
01:31PM 42.1072 -94.4306 72° East 136 157 5,600 720 Climbing Minneapolis Center
01:32PM 42.0826 -94.4738 82° East  Level FlightAware Approximate
01:32PM 42.1142 -94.3842 79° East 130 150 6,300  Level Minneapolis Center
01:33PM 42.0934 -94.4114 76° East  Level FlightAware Approximate
01:33PM 42.1158 -94.3342 87° East 126 145 6,900  Level Minneapolis Center
01:34PM 42.1211 -94.2839 82° East 134 154 7,100 60 Climbing Minneapolis Center
01:35PM 42.1494 -94.2275 56° Northeast 170 196 7,100  Level Minneapolis Center
01:36PM 42.1892 -94.1939 32° Northeast 171 197 7,100 -60 Level Minneapolis Center
01:37PM 42.2328 -94.1528 35° Northeast 175 201 7,000  Descending Minneapolis Center
01:38PM 42.2808 -94.1669 348° North 183 211 7,100  Climbing Minneapolis Center
01:39PM 42.3175 -94.1994 327° Northwest 179 206 7,100  Level Minneapolis Center
01:40PM 42.3703 -94.1486 35° Northeast 193 222 7,100  Level Minneapolis Center
01:41PM 42.3767 -94.0889 82° East 166 191 7,100  Level Minneapolis Center
01:42PM 42.3850 -94.0253 80° East 165 190 7,100  Level Minneapolis Center
01:43PM 42.3894 -93.9672 84° East 165 190 7,100  Level Minneapolis Center
01:44PM 42.3908 -93.9042 88° East 169 194 7,100  Level Minneapolis Center
01:45PM 42.3950 -93.8311 86° East 170 196 7,100  Level Minneapolis Center
01:46PM 42.3986 -93.7664 86° East 172 198 7,100  Level Minneapolis Center
01:47PM 42.4011 -93.6978 87° East 169 194 7,100  Level Minneapolis Center
01:48PM 42.4056 -93.6347 85° East 170 196 7,100  Level Minneapolis Center
01:50PM 42.4097 -93.5739 85° East 172 198 7,100  Level Minneapolis Center
01:51PM 42.4119 -93.5022 88° East 169 194 7,100  Level Minneapolis Center
01:52PM 42.4150 -93.4361 86° East 164 189 7,100  Level Minneapolis Center
01:53PM 42.4194 -93.3786 84° East 159 183 7,100  Level Minneapolis Center
01:54PM 42.4206 -93.3261 88° East 162 186 7,100  Level Minneapolis Center
01:55PM 42.4236 -93.2536 87° East 159 183 7,100  Level Minneapolis Center
01:56PM 42.4253 -93.1986 88° East 169 194 7,100  Level Minneapolis Center
01:58PM 42.4303 -93.0661 87° East 163 188 7,100  Level Minneapolis Center
01:59PM 42.4311 -93.0050 89° East 164 189 7,100  Level Minneapolis Center
02:00PM 42.4381 -92.9431 81° East 166 191 7,100  Level Minneapolis Center
02:01PM 42.4439 -92.8681 84° East 167 192 7,100  Level Minneapolis Center
02:02PM 42.4444 -92.8039 89° East 170 196 7,100  Level Minneapolis Center
02:03PM 42.4481 -92.7400 86° East 171 197 7,100  Level Minneapolis Center
02:04PM 42.4494 -92.6792 88° East 168 193 7,100 -300 Level Minneapolis Center
02:05PM 42.4506 -92.6169 89° East 167 192 6,600 -720 Descending Minneapolis Center
02:06PM 42.4556 -92.5442 85° East 165 190 5,700 -660 Descending Minneapolis Center
02:07PM 42.4606 -92.4797 84° East 169 194 5,300 -480 Descending Minneapolis Center
02:08PM 42.4594 -92.4136 91° East 172 198 4,800 -540 Descending Minneapolis Center